Airport View

Enter AWOS ICAO identifier for current METAR.

ex. KFNL

KDCM 022355Z AUTO 21003KT 10SM CLR 26/16 A3008 RMK AO2

2 Jun 2020 23:49

Frequency: 120.975

Phone: 803-385-2011

Other Area AWOS: KUZA - KLKR - KAKH - KCLT

TAF AMD KCLT 022151Z 0222/0324 22009G15KT P6SM FEW050 SCT250 FM030000 23004KT P6SM FEW250 FM031800 23009KT P6SM FEW050